sensor_id;sensor_type;location;lat;lon;timestamp;P1;durP1;ratioP1;P2;durP2;ratioP2
64651;SDS011;51062;45.120;37.660;2023-04-24T00:00:31;0.47;;;0.47;;
64651;SDS011;51062;45.120;37.660;2023-04-24T00:02:57;0.40;;;0.40;;
64651;SDS011;51062;45.120;37.660;2023-04-24T00:05:23;0.30;;;0.30;;
64651;SDS011;51062;45.120;37.660;2023-04-24T00:07:50;0.82;;;0.82;;
64651;SDS011;51062;45.120;37.660;2023-04-24T00:10:18;0.50;;;0.50;;
64651;SDS011;51062;45.120;37.660;2023-04-24T00:12:44;0.30;;;0.30;;
64651;SDS011;51062;45.120;37.660;2023-04-24T00:15:11;0.30;;;0.30;;
64651;SDS011;51062;45.120;37.660;2023-04-24T00:17:37;0.60;;;0.60;;
64651;SDS011;51062;45.120;37.660;2023-04-24T00:20:04;0.32;;;0.32;;
64651;SDS011;51062;45.120;37.660;2023-04-24T00:22:32;0.90;;;0.90;;
64651;SDS011;51062;45.120;37.660;2023-04-24T00:24:59;1.35;;;0.75;;
64651;SDS011;51062;45.120;37.660;2023-04-24T00:27:26;0.43;;;0.43;;
64651;SDS011;51062;45.120;37.660;2023-04-24T00:29:52;0.50;;;0.50;;
64651;SDS011;51062;45.120;37.660;2023-04-24T00:32:18;0.30;;;0.30;;
64651;SDS011;51062;45.120;37.660;2023-04-24T00:34:45;0.40;;;0.40;;
64651;SDS011;51062;45.120;37.660;2023-04-24T00:37:11;0.90;;;0.70;;
64651;SDS011;51062;45.120;37.660;2023-04-24T00:39:37;0.50;;;0.50;;
64651;SDS011;51062;45.120;37.660;2023-04-24T00:42:03;0.50;;;0.50;;
64651;SDS011;51062;45.120;37.660;2023-04-24T00:44:32;1.35;;;1.05;;
64651;SDS011;51062;45.120;37.660;2023-04-24T00:47:00;0.65;;;0.65;;
64651;SDS011;51062;45.120;37.660;2023-04-24T00:49:26;1.48;;;0.98;;
64651;SDS011;51062;45.120;37.660;2023-04-24T00:51:53;0.80;;;0.80;;
64651;SDS011;51062;45.120;37.660;2023-04-24T00:54:19;0.82;;;0.82;;
64651;SDS011;51062;45.120;37.660;2023-04-24T00:56:46;0.50;;;0.50;;
64651;SDS011;51062;45.120;37.660;2023-04-24T00:59:12;1.90;;;1.23;;
64651;SDS011;51062;45.120;37.660;2023-04-24T01:01:41;3.80;;;1.45;;
64651;SDS011;51062;45.120;37.660;2023-04-24T01:04:07;0.93;;;0.88;;
64651;SDS011;51062;45.120;37.660;2023-04-24T01:06:35;5.55;;;2.60;;
64651;SDS011;51062;45.120;37.660;2023-04-24T01:09:04;3.53;;;2.65;;
64651;SDS011;51062;45.120;37.660;2023-04-24T01:11:30;2.35;;;2.15;;
64651;SDS011;51062;45.120;37.660;2023-04-24T01:13:57;6.15;;;4.18;;
64651;SDS011;51062;45.120;37.660;2023-04-24T01:16:24;4.07;;;2.63;;
64651;SDS011;51062;45.120;37.660;2023-04-24T01:18:53;5.63;;;2.33;;
64651;SDS011;51062;45.120;37.660;2023-04-24T01:21:19;10.40;;;4.82;;
64651;SDS011;51062;45.120;37.660;2023-04-24T01:23:46;4.28;;;2.50;;
64651;SDS011;51062;45.120;37.660;2023-04-24T01:26:14;0.82;;;0.82;;
64651;SDS011;51062;45.120;37.660;2023-04-24T01:28:41;4.22;;;1.58;;
64651;SDS011;51062;45.120;37.660;2023-04-24T01:31:07;1.38;;;1.27;;
64651;SDS011;51062;45.120;37.660;2023-04-24T01:33:33;1.92;;;1.63;;
64651;SDS011;51062;45.120;37.660;2023-04-24T01:36:00;0.55;;;0.55;;
64651;SDS011;51062;45.120;37.660;2023-04-24T01:38:26;1.20;;;1.00;;
64651;SDS011;51062;45.120;37.660;2023-04-24T01:40:53;2.88;;;1.17;;
64651;SDS011;51062;45.120;37.660;2023-04-24T01:43:19;0.75;;;0.75;;
64651;SDS011;51062;45.120;37.660;2023-04-24T01:45:47;1.75;;;1.65;;
64651;SDS011;51062;45.120;37.660;2023-04-24T01:48:13;0.60;;;0.60;;
64651;SDS011;51062;45.120;37.660;2023-04-24T01:50:40;2.33;;;2.13;;
64651;SDS011;51062;45.120;37.660;2023-04-24T01:53:07;2.35;;;1.73;;
64651;SDS011;51062;45.120;37.660;2023-04-24T01:55:33;1.40;;;1.30;;
64651;SDS011;51062;45.120;37.660;2023-04-24T01:57:59;3.90;;;3.03;;
64651;SDS011;51062;45.120;37.660;2023-04-24T02:00:26;2.72;;;2.33;;
64651;SDS011;51062;45.120;37.660;2023-04-24T02:02:52;2.20;;;2.00;;
64651;SDS011;51062;45.120;37.660;2023-04-24T02:05:18;2.15;;;1.95;;
64651;SDS011;51062;45.120;37.660;2023-04-24T02:07:45;3.03;;;2.22;;
64651;SDS011;51062;45.120;37.660;2023-04-24T02:10:11;3.92;;;3.58;;
64651;SDS011;51062;45.120;37.660;2023-04-24T02:12:41;4.55;;;2.90;;
64651;SDS011;51062;45.120;37.660;2023-04-24T02:15:07;3.25;;;2.75;;
64651;SDS011;51062;45.120;37.660;2023-04-24T02:17:36;5.45;;;2.75;;
64651;SDS011;51062;45.120;37.660;2023-04-24T02:20:03;4.93;;;3.47;;
64651;SDS011;51062;45.120;37.660;2023-04-24T02:22:31;5.82;;;2.70;;
64651;SDS011;51062;45.120;37.660;2023-04-24T02:25:01;4.80;;;2.15;;
64651;SDS011;51062;45.120;37.660;2023-04-24T02:27:27;1.52;;;1.42;;
64651;SDS011;51062;45.120;37.660;2023-04-24T02:29:53;1.80;;;1.70;;
64651;SDS011;51062;45.120;37.660;2023-04-24T02:32:19;1.42;;;1.15;;
64651;SDS011;51062;45.120;37.660;2023-04-24T02:34:45;0.98;;;0.98;;
64651;SDS011;51062;45.120;37.660;2023-04-24T02:37:11;3.75;;;1.45;;
64651;SDS011;51062;45.120;37.660;2023-04-24T02:39:38;1.42;;;1.33;;
64651;SDS011;51062;45.120;37.660;2023-04-24T02:42:04;2.08;;;1.27;;
64651;SDS011;51062;45.120;37.660;2023-04-24T02:44:30;3.72;;;3.03;;
64651;SDS011;51062;45.120;37.660;2023-04-24T02:46:56;0.65;;;0.65;;
64651;SDS011;51062;45.120;37.660;2023-04-24T02:49:22;2.03;;;0.88;;
64651;SDS011;51062;45.120;37.660;2023-04-24T02:51:48;0.50;;;0.50;;
64651;SDS011;51062;45.120;37.660;2023-04-24T02:54:15;1.70;;;1.60;;
64651;SDS011;51062;45.120;37.660;2023-04-24T02:56:41;0.80;;;0.80;;
64651;SDS011;51062;45.120;37.660;2023-04-24T02:59:08;3.13;;;1.02;;
64651;SDS011;51062;45.120;37.660;2023-04-24T03:01:34;2.20;;;1.73;;
64651;SDS011;51062;45.120;37.660;2023-04-24T03:04:01;2.17;;;1.85;;
64651;SDS011;51062;45.120;37.660;2023-04-24T03:06:27;0.65;;;0.65;;
64651;SDS011;51062;45.120;37.660;2023-04-24T03:08:53;1.60;;;1.50;;
64651;SDS011;51062;45.120;37.660;2023-04-24T03:11:20;3.08;;;2.22;;
64651;SDS011;51062;45.120;37.660;2023-04-24T03:13:46;5.13;;;2.90;;
64651;SDS011;51062;45.120;37.660;2023-04-24T03:16:12;1.17;;;1.08;;
64651;SDS011;51062;45.120;37.660;2023-04-24T03:18:38;1.95;;;0.80;;
64651;SDS011;51062;45.120;37.660;2023-04-24T03:21:07;2.75;;;1.70;;
64651;SDS011;51062;45.120;37.660;2023-04-24T03:23:34;1.33;;;1.23;;
64651;SDS011;51062;45.120;37.660;2023-04-24T03:26:00;1.98;;;1.83;;
64651;SDS011;51062;45.120;37.660;2023-04-24T03:28:26;1.58;;;1.48;;
64651;SDS011;51062;45.120;37.660;2023-04-24T03:30:57;1.95;;;1.85;;
64651;SDS011;51062;45.120;37.660;2023-04-24T03:33:29;4.80;;;2.45;;
64651;SDS011;51062;45.120;37.660;2023-04-24T03:35:59;4.60;;;4.05;;
64651;SDS011;51062;45.120;37.660;2023-04-24T03:38:28;10.85;;;8.35;;
64651;SDS011;51062;45.120;37.660;2023-04-24T03:41:14;11.05;;;4.75;;
64651;SDS011;51062;45.120;37.660;2023-04-24T03:43:47;16.55;;;7.45;;
64651;SDS011;51062;45.120;37.660;2023-04-24T03:46:14;9.82;;;6.30;;
64651;SDS011;51062;45.120;37.660;2023-04-24T03:48:46;15.30;;;6.05;;
64651;SDS011;51062;45.120;37.660;2023-04-24T03:51:14;4.88;;;3.80;;
64651;SDS011;51062;45.120;37.660;2023-04-24T03:53:44;9.40;;;4.00;;
64651;SDS011;51062;45.120;37.660;2023-04-24T03:56:13;14.20;;;4.60;;
64651;SDS011;51062;45.120;37.660;2023-04-24T03:58:40;4.55;;;3.78;;
64651;SDS011;51062;45.120;37.660;2023-04-24T04:01:06;7.50;;;3.67;;
64651;SDS011;51062;45.120;37.660;2023-04-24T04:03:50;3.72;;;1.60;;
64651;SDS011;51062;45.120;37.660;2023-04-24T04:06:19;1.15;;;1.00;;
64651;SDS011;51062;45.120;37.660;2023-04-24T04:08:48;1.55;;;0.90;;
64651;SDS011;51062;45.120;37.660;2023-04-24T04:11:14;0.85;;;0.85;;
64651;SDS011;51062;45.120;37.660;2023-04-24T04:13:40;0.40;;;0.40;;
64651;SDS011;51062;45.120;37.660;2023-04-24T04:16:06;0.40;;;0.40;;
64651;SDS011;51062;45.120;37.660;2023-04-24T04:18:34;0.47;;;0.47;;
64651;SDS011;51062;45.120;37.660;2023-04-24T04:21:01;0.32;;;0.32;;
64651;SDS011;51062;45.120;37.660;2023-04-24T04:23:28;0.30;;;0.30;;
64651;SDS011;51062;45.120;37.660;2023-04-24T04:26:09;0.40;;;0.40;;
64651;SDS011;51062;45.120;37.660;2023-04-24T04:28:56;0.40;;;0.40;;
64651;SDS011;51062;45.120;37.660;2023-04-24T04:31:22;0.35;;;0.35;;
64651;SDS011;51062;45.120;37.660;2023-04-24T04:33:49;0.35;;;0.35;;
64651;SDS011;51062;45.120;37.660;2023-04-24T04:36:16;0.40;;;0.40;;
64651;SDS011;51062;45.120;37.660;2023-04-24T04:38:48;1.40;;;1.30;;
64651;SDS011;51062;45.120;37.660;2023-04-24T04:41:44;0.38;;;0.38;;
64651;SDS011;51062;45.120;37.660;2023-04-24T04:44:15;0.40;;;0.40;;
64651;SDS011;51062;45.120;37.660;2023-04-24T04:46:42;1.75;;;1.15;;
64651;SDS011;51062;45.120;37.660;2023-04-24T04:49:28;0.40;;;0.40;;
64651;SDS011;51062;45.120;37.660;2023-04-24T04:51:55;0.50;;;0.50;;
64651;SDS011;51062;45.120;37.660;2023-04-24T04:54:24;1.75;;;0.65;;
64651;SDS011;51062;45.120;37.660;2023-04-24T04:56:50;0.28;;;0.28;;
64651;SDS011;51062;45.120;37.660;2023-04-24T04:59:17;0.28;;;0.28;;
64651;SDS011;51062;45.120;37.660;2023-04-24T05:01:43;0.38;;;0.38;;
64651;SDS011;51062;45.120;37.660;2023-04-24T05:04:12;0.43;;;0.43;;
64651;SDS011;51062;45.120;37.660;2023-04-24T05:06:38;0.30;;;0.30;;
64651;SDS011;51062;45.120;37.660;2023-04-24T05:09:05;0.30;;;0.30;;
64651;SDS011;51062;45.120;37.660;2023-04-24T05:11:43;0.40;;;0.40;;
64651;SDS011;51062;45.120;37.660;2023-04-24T05:14:09;0.40;;;0.40;;
64651;SDS011;51062;45.120;37.660;2023-04-24T05:16:39;0.20;;;0.20;;
64651;SDS011;51062;45.120;37.660;2023-04-24T05:19:07;0.55;;;0.55;;
64651;SDS011;51062;45.120;37.660;2023-04-24T05:21:37;0.30;;;0.30;;
64651;SDS011;51062;45.120;37.660;2023-04-24T05:24:05;0.30;;;0.30;;
64651;SDS011;51062;45.120;37.660;2023-04-24T05:26:51;0.68;;;0.68;;
64651;SDS011;51062;45.120;37.660;2023-04-24T05:29:23;0.40;;;0.40;;
64651;SDS011;51062;45.120;37.660;2023-04-24T05:31:49;0.30;;;0.30;;
64651;SDS011;51062;45.120;37.660;2023-04-24T05:34:15;0.40;;;0.40;;
64651;SDS011;51062;45.120;37.660;2023-04-24T05:36:44;0.40;;;0.40;;
64651;SDS011;51062;45.120;37.660;2023-04-24T05:39:10;0.30;;;0.30;;
64651;SDS011;51062;45.120;37.660;2023-04-24T05:41:37;0.50;;;0.50;;
64651;SDS011;51062;45.120;37.660;2023-04-24T05:44:03;0.40;;;0.40;;
64651;SDS011;51062;45.120;37.660;2023-04-24T05:46:29;3.45;;;0.80;;
64651;SDS011;51062;45.120;37.660;2023-04-24T05:48:56;0.60;;;0.60;;
64651;SDS011;51062;45.120;37.660;2023-04-24T05:51:24;0.38;;;0.38;;
64651;SDS011;51062;45.120;37.660;2023-04-24T05:53:51;0.50;;;0.50;;
64651;SDS011;51062;45.120;37.660;2023-04-24T05:56:17;0.30;;;0.30;;
64651;SDS011;51062;45.120;37.660;2023-04-24T05:58:44;0.30;;;0.30;;
64651;SDS011;51062;45.120;37.660;2023-04-24T06:01:12;0.20;;;0.20;;
64651;SDS011;51062;45.120;37.660;2023-04-24T06:03:41;0.30;;;0.30;;
64651;SDS011;51062;45.120;37.660;2023-04-24T06:06:08;0.57;;;0.57;;
64651;SDS011;51062;45.120;37.660;2023-04-24T06:08:35;0.32;;;0.32;;
64651;SDS011;51062;45.120;37.660;2023-04-24T06:11:01;0.38;;;0.38;;
64651;SDS011;51062;45.120;37.660;2023-04-24T06:13:28;0.40;;;0.40;;
64651;SDS011;51062;45.120;37.660;2023-04-24T06:16:15;0.30;;;0.30;;
64651;SDS011;51062;45.120;37.660;2023-04-24T06:18:48;0.40;;;0.40;;
64651;SDS011;51062;45.120;37.660;2023-04-24T06:21:15;0.68;;;0.60;;
64651;SDS011;51062;45.120;37.660;2023-04-24T06:23:43;0.30;;;0.30;;
64651;SDS011;51062;45.120;37.660;2023-04-24T06:26:11;0.40;;;0.40;;
64651;SDS011;51062;45.120;37.660;2023-04-24T06:28:38;0.30;;;0.30;;
64651;SDS011;51062;45.120;37.660;2023-04-24T06:31:04;0.60;;;0.47;;
64651;SDS011;51062;45.120;37.660;2023-04-24T06:33:30;0.30;;;0.30;;
64651;SDS011;51062;45.120;37.660;2023-04-24T06:35:57;0.40;;;0.40;;
64651;SDS011;51062;45.120;37.660;2023-04-24T06:38:23;0.40;;;0.40;;
64651;SDS011;51062;45.120;37.660;2023-04-24T06:40:49;0.30;;;0.30;;
64651;SDS011;51062;45.120;37.660;2023-04-24T06:43:16;0.90;;;0.90;;
64651;SDS011;51062;45.120;37.660;2023-04-24T06:45:43;0.70;;;0.70;;
64651;SDS011;51062;45.120;37.660;2023-04-24T06:48:09;0.30;;;0.30;;
64651;SDS011;51062;45.120;37.660;2023-04-24T06:50:35;0.32;;;0.32;;
64651;SDS011;51062;45.120;37.660;2023-04-24T06:53:01;0.32;;;0.32;;
64651;SDS011;51062;45.120;37.660;2023-04-24T06:55:27;0.45;;;0.45;;
64651;SDS011;51062;45.120;37.660;2023-04-24T06:57:53;0.40;;;0.40;;
64651;SDS011;51062;45.120;37.660;2023-04-24T07:00:20;0.30;;;0.30;;
64651;SDS011;51062;45.120;37.660;2023-04-24T07:02:46;0.30;;;0.30;;
64651;SDS011;51062;45.120;37.660;2023-04-24T07:05:12;0.22;;;0.22;;
64651;SDS011;51062;45.120;37.660;2023-04-24T07:07:40;0.30;;;0.30;;
64651;SDS011;51062;45.120;37.660;2023-04-24T07:10:08;0.75;;;0.75;;
64651;SDS011;51062;45.120;37.660;2023-04-24T07:12:34;0.40;;;0.40;;
64651;SDS011;51062;45.120;37.660;2023-04-24T07:15:01;0.40;;;0.40;;
64651;SDS011;51062;45.120;37.660;2023-04-24T07:17:27;0.28;;;0.28;;
64651;SDS011;51062;45.120;37.660;2023-04-24T07:19:53;0.40;;;0.40;;
64651;SDS011;51062;45.120;37.660;2023-04-24T07:22:19;0.73;;;0.73;;
64651;SDS011;51062;45.120;37.660;2023-04-24T07:24:45;0.40;;;0.40;;
64651;SDS011;51062;45.120;37.660;2023-04-24T07:27:11;0.20;;;0.20;;
64651;SDS011;51062;45.120;37.660;2023-04-24T07:29:38;0.30;;;0.30;;
64651;SDS011;51062;45.120;37.660;2023-04-24T07:32:05;0.30;;;0.30;;
64651;SDS011;51062;45.120;37.660;2023-04-24T07:34:31;0.20;;;0.20;;
64651;SDS011;51062;45.120;37.660;2023-04-24T07:36:57;0.30;;;0.30;;
64651;SDS011;51062;45.120;37.660;2023-04-24T07:39:23;0.30;;;0.30;;
64651;SDS011;51062;45.120;37.660;2023-04-24T07:41:49;0.30;;;0.30;;
64651;SDS011;51062;45.120;37.660;2023-04-24T07:44:16;0.40;;;0.40;;
64651;SDS011;51062;45.120;37.660;2023-04-24T07:46:41;0.30;;;0.30;;
64651;SDS011;51062;45.120;37.660;2023-04-24T07:49:08;0.38;;;0.38;;
64651;SDS011;51062;45.120;37.660;2023-04-24T07:51:34;0.50;;;0.50;;
64651;SDS011;51062;45.120;37.660;2023-04-24T07:54:04;0.30;;;0.30;;
64651;SDS011;51062;45.120;37.660;2023-04-24T07:56:33;0.85;;;0.70;;
64651;SDS011;51062;45.120;37.660;2023-04-24T07:58:59;0.30;;;0.30;;
64651;SDS011;51062;45.120;37.660;2023-04-24T08:01:26;0.30;;;0.30;;
64651;SDS011;51062;45.120;37.660;2023-04-24T08:03:52;0.22;;;0.22;;
64651;SDS011;51062;45.120;37.660;2023-04-24T08:06:18;0.57;;;0.57;;
64651;SDS011;51062;45.120;37.660;2023-04-24T08:08:44;0.30;;;0.30;;
64651;SDS011;51062;45.120;37.660;2023-04-24T08:11:10;0.28;;;0.28;;
64651;SDS011;51062;45.120;37.660;2023-04-24T08:13:37;1.52;;;1.42;;
64651;SDS011;51062;45.120;37.660;2023-04-24T08:16:03;0.38;;;0.38;;
64651;SDS011;51062;45.120;37.660;2023-04-24T08:18:29;0.30;;;0.30;;
64651;SDS011;51062;45.120;37.660;2023-04-24T08:20:55;0.30;;;0.30;;
64651;SDS011;51062;45.120;37.660;2023-04-24T08:23:26;0.73;;;0.73;;
64651;SDS011;51062;45.120;37.660;2023-04-24T08:25:54;0.90;;;0.70;;
64651;SDS011;51062;45.120;37.660;2023-04-24T08:28:20;0.30;;;0.30;;
64651;SDS011;51062;45.120;37.660;2023-04-24T08:30:46;0.32;;;0.32;;
64651;SDS011;51062;45.120;37.660;2023-04-24T08:33:13;0.32;;;0.32;;
64651;SDS011;51062;45.120;37.660;2023-04-24T08:35:40;0.30;;;0.30;;
64651;SDS011;51062;45.120;37.660;2023-04-24T08:38:06;1.27;;;0.70;;
64651;SDS011;51062;45.120;37.660;2023-04-24T08:40:33;0.88;;;0.88;;
64651;SDS011;51062;45.120;37.660;2023-04-24T08:43:00;0.65;;;0.65;;
64651;SDS011;51062;45.120;37.660;2023-04-24T08:45:26;0.52;;;0.52;;
64651;SDS011;51062;45.120;37.660;2023-04-24T08:47:53;0.30;;;0.30;;
64651;SDS011;51062;45.120;37.660;2023-04-24T08:50:22;0.30;;;0.30;;
64651;SDS011;51062;45.120;37.660;2023-04-24T08:52:51;0.40;;;0.40;;
64651;SDS011;51062;45.120;37.660;2023-04-24T08:55:22;0.30;;;0.30;;
64651;SDS011;51062;45.120;37.660;2023-04-24T08:57:50;0.40;;;0.40;;
64651;SDS011;51062;45.120;37.660;2023-04-24T09:00:18;0.70;;;0.70;;
64651;SDS011;51062;45.120;37.660;2023-04-24T09:02:48;0.40;;;0.40;;
64651;SDS011;51062;45.120;37.660;2023-04-24T09:05:18;2.45;;;0.65;;
64651;SDS011;51062;45.120;37.660;2023-04-24T09:07:52;1.70;;;1.58;;
64651;SDS011;51062;45.120;37.660;2023-04-24T09:10:24;0.22;;;0.22;;
64651;SDS011;51062;45.120;37.660;2023-04-24T09:12:51;0.70;;;0.70;;
64651;SDS011;51062;45.120;37.660;2023-04-24T09:15:18;0.40;;;0.40;;
64651;SDS011;51062;45.120;37.660;2023-04-24T09:17:46;0.40;;;0.40;;
64651;SDS011;51062;45.120;37.660;2023-04-24T09:20:12;0.50;;;0.50;;
64651;SDS011;51062;45.120;37.660;2023-04-24T09:22:38;0.40;;;0.40;;
64651;SDS011;51062;45.120;37.660;2023-04-24T09:25:05;0.30;;;0.30;;
64651;SDS011;51062;45.120;37.660;2023-04-24T09:27:54;0.40;;;0.40;;
64651;SDS011;51062;45.120;37.660;2023-04-24T09:30:20;0.60;;;0.60;;
64651;SDS011;51062;45.120;37.660;2023-04-24T09:32:48;0.30;;;0.30;;
64651;SDS011;51062;45.120;37.660;2023-04-24T09:35:14;1.08;;;0.60;;
64651;SDS011;51062;45.120;37.660;2023-04-24T09:37:44;0.55;;;0.55;;
64651;SDS011;51062;45.120;37.660;2023-04-24T09:42:44;0.32;;;0.32;;
64651;SDS011;51062;45.120;37.660;2023-04-24T09:45:18;0.40;;;0.40;;
64651;SDS011;51062;45.120;37.660;2023-04-24T09:47:44;0.50;;;0.50;;
64651;SDS011;51062;45.120;37.660;2023-04-24T09:50:12;2.03;;;0.77;;
64651;SDS011;51062;45.120;37.660;2023-04-24T09:52:39;0.85;;;0.60;;
64651;SDS011;51062;45.120;37.660;2023-04-24T09:55:17;0.47;;;0.47;;
64651;SDS011;51062;45.120;37.660;2023-04-24T10:00:23;0.50;;;0.50;;
64651;SDS011;51062;45.120;37.660;2023-04-24T10:03:00;0.70;;;0.70;;
64651;SDS011;51062;45.120;37.660;2023-04-24T10:05:28;0.65;;;0.65;;
64651;SDS011;51062;45.120;37.660;2023-04-24T10:07:57;0.95;;;0.90;;
64651;SDS011;51062;45.120;37.660;2023-04-24T10:10:26;0.85;;;0.85;;
64651;SDS011;51062;45.120;37.660;2023-04-24T10:12:53;0.80;;;0.77;;
64651;SDS011;51062;45.120;37.660;2023-04-24T10:15:20;1.40;;;1.27;;
64651;SDS011;51062;45.120;37.660;2023-04-24T10:17:47;1.13;;;1.02;;
64651;SDS011;51062;45.120;37.660;2023-04-24T10:20:27;0.30;;;0.30;;
64651;SDS011;51062;45.120;37.660;2023-04-24T10:22:58;0.40;;;0.40;;
64651;SDS011;51062;45.120;37.660;2023-04-24T10:25:29;0.60;;;0.60;;
64651;SDS011;51062;45.120;37.660;2023-04-24T10:27:57;0.52;;;0.52;;
64651;SDS011;51062;45.120;37.660;2023-04-24T10:30:29;0.63;;;0.63;;
64651;SDS011;51062;45.120;37.660;2023-04-24T10:33:03;0.63;;;0.63;;
64651;SDS011;51062;45.120;37.660;2023-04-24T10:35:31;0.30;;;0.30;;
64651;SDS011;51062;45.120;37.660;2023-04-24T10:38:03;0.60;;;0.60;;
64651;SDS011;51062;45.120;37.660;2023-04-24T10:40:34;1.67;;;1.13;;
64651;SDS011;51062;45.120;37.660;2023-04-24T10:43:05;1.58;;;0.90;;
64651;SDS011;51062;45.120;37.660;2023-04-24T10:45:34;0.60;;;0.60;;
64651;SDS011;51062;45.120;37.660;2023-04-24T10:48:04;0.80;;;0.80;;
64651;SDS011;51062;45.120;37.660;2023-04-24T10:53:29;0.98;;;0.93;;
64651;SDS011;51062;45.120;37.660;2023-04-24T10:58:26;0.30;;;0.30;;
64651;SDS011;51062;45.120;37.660;2023-04-24T11:03:58;0.82;;;0.82;;
64651;SDS011;51062;45.120;37.660;2023-04-24T11:06:29;0.60;;;0.60;;
64651;SDS011;51062;45.120;37.660;2023-04-24T11:09:07;0.70;;;0.63;;
64651;SDS011;51062;45.120;37.660;2023-04-24T11:11:37;0.85;;;0.85;;
64651;SDS011;51062;45.120;37.660;2023-04-24T11:14:06;0.63;;;0.63;;
64651;SDS011;51062;45.120;37.660;2023-04-24T11:16:38;25.42;;;0.90;;
64651;SDS011;51062;45.120;37.660;2023-04-24T11:19:17;0.30;;;0.30;;
64651;SDS011;51062;45.120;37.660;2023-04-24T11:32:27;0.40;;;0.40;;
64651;SDS011;51062;45.120;37.660;2023-04-24T11:35:17;0.63;;;0.63;;
64651;SDS011;51062;45.120;37.660;2023-04-24T11:37:48;2.30;;;1.77;;
64651;SDS011;51062;45.120;37.660;2023-04-24T11:40:17;0.73;;;0.73;;
64651;SDS011;51062;45.120;37.660;2023-04-24T11:42:54;0.73;;;0.73;;
64651;SDS011;51062;45.120;37.660;2023-04-24T11:45:25;0.55;;;0.55;;
64651;SDS011;51062;45.120;37.660;2023-04-24T11:47:56;0.80;;;0.80;;
64651;SDS011;51062;45.120;37.660;2023-04-24T11:50:23;0.43;;;0.43;;
64651;SDS011;51062;45.120;37.660;2023-04-24T11:52:51;0.60;;;0.60;;
64651;SDS011;51062;45.120;37.660;2023-04-24T11:57:47;0.60;;;0.60;;
64651;SDS011;51062;45.120;37.660;2023-04-24T12:00:19;0.85;;;0.85;;
64651;SDS011;51062;45.120;37.660;2023-04-24T12:02:47;1.05;;;1.02;;
64651;SDS011;51062;45.120;37.660;2023-04-24T12:05:20;0.63;;;0.63;;
64651;SDS011;51062;45.120;37.660;2023-04-24T12:07:50;0.45;;;0.45;;
64651;SDS011;51062;45.120;37.660;2023-04-24T12:10:19;1.25;;;1.15;;
64651;SDS011;51062;45.120;37.660;2023-04-24T12:12:50;0.30;;;0.30;;
64651;SDS011;51062;45.120;37.660;2023-04-24T12:15:17;0.30;;;0.30;;
64651;SDS011;51062;45.120;37.660;2023-04-24T12:17:45;0.50;;;0.50;;
64651;SDS011;51062;45.120;37.660;2023-04-24T12:20:12;1.17;;;1.13;;
64651;SDS011;51062;45.120;37.660;2023-04-24T12:22:51;1.83;;;1.67;;
64651;SDS011;51062;45.120;37.660;2023-04-24T12:25:22;4.22;;;0.98;;
64651;SDS011;51062;45.120;37.660;2023-04-24T12:28:09;0.47;;;0.47;;
64651;SDS011;51062;45.120;37.660;2023-04-24T12:30:41;0.77;;;0.77;;
64651;SDS011;51062;45.120;37.660;2023-04-24T12:33:09;0.60;;;0.60;;
64651;SDS011;51062;45.120;37.660;2023-04-24T12:35:36;0.50;;;0.50;;
64651;SDS011;51062;45.120;37.660;2023-04-24T12:38:09;0.30;;;0.30;;
64651;SDS011;51062;45.120;37.660;2023-04-24T12:40:37;0.47;;;0.47;;
64651;SDS011;51062;45.120;37.660;2023-04-24T12:43:19;0.73;;;0.73;;
64651;SDS011;51062;45.120;37.660;2023-04-24T12:45:49;0.40;;;0.40;;
64651;SDS011;51062;45.120;37.660;2023-04-24T12:48:15;0.50;;;0.50;;
64651;SDS011;51062;45.120;37.660;2023-04-24T12:50:41;0.40;;;0.40;;
64651;SDS011;51062;45.120;37.660;2023-04-24T12:53:08;0.60;;;0.60;;
64651;SDS011;51062;45.120;37.660;2023-04-24T12:55:34;1.38;;;0.75;;
64651;SDS011;51062;45.120;37.660;2023-04-24T12:58:01;0.40;;;0.40;;
64651;SDS011;51062;45.120;37.660;2023-04-24T13:00:28;0.30;;;0.30;;
64651;SDS011;51062;45.120;37.660;2023-04-24T13:02:55;0.70;;;0.70;;
64651;SDS011;51062;45.120;37.660;2023-04-24T13:05:21;0.60;;;0.60;;
64651;SDS011;51062;45.120;37.660;2023-04-24T13:07:47;1.95;;;1.55;;
64651;SDS011;51062;45.120;37.660;2023-04-24T13:10:13;3.10;;;1.23;;
64651;SDS011;51062;45.120;37.660;2023-04-24T13:12:39;0.80;;;0.80;;
64651;SDS011;51062;45.120;37.660;2023-04-24T13:15:06;0.57;;;0.57;;
64651;SDS011;51062;45.120;37.660;2023-04-24T13:17:32;0.40;;;0.40;;
64651;SDS011;51062;45.120;37.660;2023-04-24T13:19:58;0.93;;;0.65;;
64651;SDS011;51062;45.120;37.660;2023-04-24T13:22:25;0.40;;;0.40;;
64651;SDS011;51062;45.120;37.660;2023-04-24T13:24:51;0.38;;;0.38;;
64651;SDS011;51062;45.120;37.660;2023-04-24T13:27:17;0.40;;;0.40;;
64651;SDS011;51062;45.120;37.660;2023-04-24T13:29:43;0.38;;;0.38;;
64651;SDS011;51062;45.120;37.660;2023-04-24T13:32:10;1.17;;;0.85;;
64651;SDS011;51062;45.120;37.660;2023-04-24T13:34:36;0.70;;;0.70;;
64651;SDS011;51062;45.120;37.660;2023-04-24T13:37:02;0.50;;;0.50;;
64651;SDS011;51062;45.120;37.660;2023-04-24T13:39:29;3.00;;;1.15;;
64651;SDS011;51062;45.120;37.660;2023-04-24T13:41:55;0.50;;;0.50;;
64651;SDS011;51062;45.120;37.660;2023-04-24T13:44:22;0.85;;;0.85;;
64651;SDS011;51062;45.120;37.660;2023-04-24T13:46:50;1.52;;;1.38;;
64651;SDS011;51062;45.120;37.660;2023-04-24T13:49:19;0.88;;;0.88;;
64651;SDS011;51062;45.120;37.660;2023-04-24T13:51:46;3.40;;;0.75;;
64651;SDS011;51062;45.120;37.660;2023-04-24T13:54:12;0.75;;;0.75;;
64651;SDS011;51062;45.120;37.660;2023-04-24T13:56:39;1.65;;;1.05;;
64651;SDS011;51062;45.120;37.660;2023-04-24T13:59:06;0.65;;;0.65;;
64651;SDS011;51062;45.120;37.660;2023-04-24T14:01:32;0.68;;;0.68;;
64651;SDS011;51062;45.120;37.660;2023-04-24T14:03:58;2.30;;;0.95;;
64651;SDS011;51062;45.120;37.660;2023-04-24T14:06:25;1.40;;;1.30;;
64651;SDS011;51062;45.120;37.660;2023-04-24T14:08:51;1.08;;;0.70;;
64651;SDS011;51062;45.120;37.660;2023-04-24T14:11:18;0.60;;;0.60;;
64651;SDS011;51062;45.120;37.660;2023-04-24T14:13:45;0.73;;;0.65;;
64651;SDS011;51062;45.120;37.660;2023-04-24T14:16:11;0.63;;;0.63;;
64651;SDS011;51062;45.120;37.660;2023-04-24T14:18:39;0.75;;;0.75;;
64651;SDS011;51062;45.120;37.660;2023-04-24T14:21:05;0.60;;;0.60;;
64651;SDS011;51062;45.120;37.660;2023-04-24T14:23:32;0.75;;;0.75;;
64651;SDS011;51062;45.120;37.660;2023-04-24T14:25:58;0.45;;;0.45;;
64651;SDS011;51062;45.120;37.660;2023-04-24T14:28:24;3.83;;;1.00;;
64651;SDS011;51062;45.120;37.660;2023-04-24T14:30:52;0.60;;;0.60;;
64651;SDS011;51062;45.120;37.660;2023-04-24T14:33:18;0.40;;;0.40;;
64651;SDS011;51062;45.120;37.660;2023-04-24T14:35:45;0.50;;;0.50;;
64651;SDS011;51062;45.120;37.660;2023-04-24T14:38:11;0.38;;;0.38;;
64651;SDS011;51062;45.120;37.660;2023-04-24T14:40:37;0.65;;;0.65;;
64651;SDS011;51062;45.120;37.660;2023-04-24T14:43:05;0.77;;;0.65;;
64651;SDS011;51062;45.120;37.660;2023-04-24T14:45:32;0.50;;;0.50;;
64651;SDS011;51062;45.120;37.660;2023-04-24T14:47:58;0.30;;;0.30;;
64651;SDS011;51062;45.120;37.660;2023-04-24T14:50:24;0.47;;;0.47;;
64651;SDS011;51062;45.120;37.660;2023-04-24T14:52:54;0.60;;;0.60;;
64651;SDS011;51062;45.120;37.660;2023-04-24T14:55:24;1.95;;;1.17;;
64651;SDS011;51062;45.120;37.660;2023-04-24T14:57:51;0.40;;;0.40;;
64651;SDS011;51062;45.120;37.660;2023-04-24T15:00:18;1.75;;;0.88;;
64651;SDS011;51062;45.120;37.660;2023-04-24T15:02:45;0.70;;;0.70;;
64651;SDS011;51062;45.120;37.660;2023-04-24T15:05:11;2.15;;;0.98;;